AXB1680 VABB-VOHS
Flight info
| Callsign | AXB1680 |
|---|---|
| Flight time | 1h 1m |
| Altitude | 33000 |
| Route | VEVAK2A PPN W28 PONIP NAMSA8 |
| Aircraft | B738/M-SDE2E3FGHIRWXY/LB1 |
Departure
| Time | 2026-04-21 16:04 |
|---|---|
| Airport | Chhatrapati Shivaji Maharaj International Airport (VABB) |
Arrival
| Time | 2026-04-21 17:06 |
|---|---|
| Airport | Rajiv Gandhi International Airport (VOHS) |
| Time | Latitude | Longitude | Altitude | Speed | Heading |
|---|---|---|---|---|---|
| 2026-04-21 15:42 | 19.09224 | 72.87457 | 31 ft | 0 kts | 89° |
| 2026-04-21 15:55 | 19.09224 | 72.87450 | 31 ft | 2 kts | 89° |
| 2026-04-21 15:56 | 19.09223 | 72.87435 | 31 ft | 2 kts | 90° |
| 2026-04-21 15:56 | 19.09225 | 72.87419 | 31 ft | 2 kts | 107° |
| 2026-04-21 15:56 | 19.09231 | 72.87404 | 31 ft | 2 kts | 118° |
| 2026-04-21 15:56 | 19.09239 | 72.87391 | 31 ft | 2 kts | 131° |
| 2026-04-21 15:57 | 19.09250 | 72.87380 | 31 ft | 2 kts | 143° |
| 2026-04-21 15:57 | 19.09262 | 72.87372 | 32 ft | 2 kts | 156° |
| 2026-04-21 15:57 | 19.09277 | 72.87367 | 32 ft | 2 kts | 168° |
| 2026-04-21 15:57 | 19.09287 | 72.87365 | 32 ft | 0 kts | 177° |
| 2026-04-21 15:58 | 19.09294 | 72.87365 | 33 ft | 0 kts | 179° |
| 2026-04-21 16:00 | 19.09293 | 72.87365 | 32 ft | 0 kts | 179° |
| 2026-04-21 16:00 | 19.09275 | 72.87363 | 32 ft | 5 kts | 192° |
| 2026-04-21 16:00 | 19.09243 | 72.87341 | 32 ft | 5 kts | 239° |
| 2026-04-21 16:00 | 19.09236 | 72.87296 | 31 ft | 6 kts | 269° |
| 2026-04-21 16:01 | 19.09208 | 72.87265 | 31 ft | 7 kts | 191° |
| 2026-04-21 16:01 | 19.09155 | 72.87261 | 30 ft | 8 kts | 179° |
| 2026-04-21 16:01 | 19.09096 | 72.87261 | 29 ft | 8 kts | 180° |
| 2026-04-21 16:01 | 19.09052 | 72.87300 | 28 ft | 9 kts | 96° |
| 2026-04-21 16:02 | 19.09053 | 72.87399 | 28 ft | 17 kts | 89° |
| 2026-04-21 16:02 | 19.09054 | 72.87546 | 28 ft | 21 kts | 89° |
| 2026-04-21 16:02 | 19.09056 | 72.87692 | 29 ft | 17 kts | 89° |
| 2026-04-21 16:02 | 19.09055 | 72.87786 | 30 ft | 8 kts | 106° |
| 2026-04-21 16:03 | 19.09033 | 72.87805 | 30 ft | 3 kts | 166° |
| 2026-04-21 16:03 | 19.08985 | 72.87807 | 30 ft | 10 kts | 179° |
| 2026-04-21 16:03 | 19.08908 | 72.87798 | 30 ft | 12 kts | 213° |
| 2026-04-21 16:03 | 19.08884 | 72.87669 | 28 ft | 38 kts | 269° |
| 2026-04-21 16:04 | 19.08875 | 72.87126 | 27 ft | 106 kts | 269° |
| 2026-04-21 16:04 | 19.08861 | 72.86135 | 30 ft | 161 kts | 269° |
| 2026-04-21 16:04 | 19.08837 | 72.84849 | 371 ft | 179 kts | 270° |
| 2026-04-21 16:04 | 19.08839 | 72.83565 | 1137 ft | 174 kts | 276° |
| 2026-04-21 16:05 | 19.08844 | 72.82246 | 1584 ft | 188 kts | 275° |
| 2026-04-21 16:05 | 19.08821 | 72.80848 | 2053 ft | 200 kts | 274° |
| 2026-04-21 16:05 | 19.08793 | 72.79327 | 2523 ft | 213 kts | 274° |
| 2026-04-21 16:05 | 19.08776 | 72.78239 | 2786 ft | 226 kts | 274° |
| 2026-04-21 16:06 | 19.08741 | 72.75971 | 3541 ft | 239 kts | 273° |
| 2026-04-21 16:06 | 19.08687 | 72.74197 | 4223 ft | 245 kts | 266° |
| 2026-04-21 16:06 | 19.08106 | 72.72494 | 4885 ft | 254 kts | 236° |
| 2026-04-21 16:06 | 19.06824 | 72.71239 | 5575 ft | 257 kts | 209° |
| 2026-04-21 16:07 | 19.05186 | 72.70556 | 6347 ft | 255 kts | 193° |
| 2026-04-21 16:07 | 19.03409 | 72.70386 | 7047 ft | 255 kts | 171° |
| 2026-04-21 16:07 | 19.01799 | 72.71026 | 7761 ft | 252 kts | 142° |
| 2026-04-21 16:07 | 19.00484 | 72.72253 | 8438 ft | 254 kts | 134° |
| 2026-04-21 16:08 | 18.97704 | 72.74610 | 9790 ft | 260 kts | 159° |
| 2026-04-21 16:08 | 18.95903 | 72.74952 | 10485 ft | 269 kts | 177° |
| 2026-04-21 16:08 | 18.94031 | 72.74886 | 11170 ft | 274 kts | 182° |
| 2026-04-21 16:09 | 18.92100 | 72.74744 | 11513 ft | 277 kts | 182° |
| 2026-04-21 16:09 | 18.90133 | 72.74634 | 11834 ft | 291 kts | 178° |
| 2026-04-21 16:09 | 18.88172 | 72.75053 | 12582 ft | 289 kts | 151° |
| 2026-04-21 16:09 | 18.86666 | 72.76382 | 13446 ft | 285 kts | 125° |
| 2026-04-21 16:10 | 18.85828 | 72.78281 | 14128 ft | 291 kts | 106° |
| 2026-04-21 16:10 | 18.85368 | 72.80364 | 14734 ft | 300 kts | 104° |
| 2026-04-21 16:10 | 18.84894 | 72.82558 | 15268 ft | 312 kts | 104° |
| 2026-04-21 16:10 | 18.84381 | 72.84795 | 15954 ft | 317 kts | 105° |
| 2026-04-21 16:11 | 18.83837 | 72.87078 | 16630 ft | 323 kts | 105° |
| 2026-04-21 16:11 | 18.83277 | 72.89392 | 16993 ft | 338 kts | 105° |
| 2026-04-21 16:11 | 18.82675 | 72.91868 | 17395 ft | 352 kts | 105° |
| 2026-04-21 16:11 | 18.82069 | 72.94367 | 18034 ft | 357 kts | 105° |
| 2026-04-21 16:12 | 18.81456 | 72.96902 | 18727 ft | 361 kts | 105° |
| 2026-04-21 16:12 | 18.80837 | 72.99464 | 19447 ft | 363 kts | 104° |
| 2026-04-21 16:12 | 18.80202 | 73.02090 | 19865 ft | 375 kts | 104° |
| 2026-04-21 16:12 | 18.79552 | 73.04779 | 20226 ft | 387 kts | 104° |
| 2026-04-21 16:13 | 18.78868 | 73.07606 | 20537 ft | 400 kts | 104° |
| 2026-04-21 16:13 | 18.78180 | 73.10446 | 21038 ft | 407 kts | 104° |
| 2026-04-21 16:13 | 18.77470 | 73.13377 | 21674 ft | 410 kts | 104° |
| 2026-04-21 16:13 | 18.76767 | 73.16274 | 22232 ft | 415 kts | 104° |
| 2026-04-21 16:14 | 18.76047 | 73.19234 | 22875 ft | 417 kts | 104° |
| 2026-04-21 16:14 | 18.75329 | 73.22189 | 23391 ft | 423 kts | 104° |
| 2026-04-21 16:14 | 18.74596 | 73.25206 | 23952 ft | 427 kts | 104° |
| 2026-04-21 16:14 | 18.73856 | 73.28249 | 24438 ft | 432 kts | 104° |
| 2026-04-21 16:15 | 18.73107 | 73.31323 | 24925 ft | 437 kts | 105° |
| 2026-04-21 16:15 | 18.72350 | 73.34428 | 25438 ft | 441 kts | 105° |
| 2026-04-21 16:15 | 18.71591 | 73.37538 | 26138 ft | 439 kts | 105° |
| 2026-04-21 16:15 | 18.70833 | 73.40640 | 26803 ft | 438 kts | 105° |
| 2026-04-21 16:16 | 18.70065 | 73.43787 | 27398 ft | 439 kts | 105° |
| 2026-04-21 16:16 | 18.69314 | 73.46865 | 28023 ft | 439 kts | 105° |
| 2026-04-21 16:16 | 18.68548 | 73.50002 | 28628 ft | 438 kts | 105° |
| 2026-04-21 16:16 | 18.67791 | 73.53098 | 29179 ft | 439 kts | 105° |
| 2026-04-21 16:17 | 18.67030 | 73.56202 | 29714 ft | 439 kts | 106° |
| 2026-04-21 16:17 | 18.66269 | 73.59301 | 30216 ft | 439 kts | 107° |
| 2026-04-21 16:17 | 18.65497 | 73.62432 | 30504 ft | 445 kts | 107° |
| 2026-04-21 16:17 | 18.64713 | 73.65603 | 30628 ft | 455 kts | 108° |
| 2026-04-21 16:18 | 18.63906 | 73.68871 | 30874 ft | 461 kts | 108° |
| 2026-04-21 16:18 | 18.63106 | 73.72121 | 31266 ft | 464 kts | 108° |
| 2026-04-21 16:18 | 18.62297 | 73.75416 | 31797 ft | 462 kts | 109° |
| 2026-04-21 16:18 | 18.61489 | 73.78704 | 32362 ft | 460 kts | 110° |
| 2026-04-21 16:19 | 18.60681 | 73.81975 | 32618 ft | 464 kts | 110° |
| 2026-04-21 16:19 | 18.59877 | 73.85223 | 32860 ft | 463 kts | 110° |
| 2026-04-21 16:19 | 18.59055 | 73.88489 | 32976 ft | 462 kts | 112° |
| 2026-04-21 16:20 | 18.56902 | 73.94817 | 32986 ft | 458 kts | 119° |
| 2026-04-21 16:20 | 18.54287 | 74.01019 | 32970 ft | 470 kts | 121° |
| 2026-04-21 16:21 | 18.51548 | 74.07240 | 32967 ft | 467 kts | 122° |
| 2026-04-21 16:21 | 18.48802 | 74.13468 | 32967 ft | 469 kts | 122° |
| 2026-04-21 16:22 | 18.46084 | 74.19671 | 32967 ft | 467 kts | 122° |
| 2026-04-21 16:22 | 18.43398 | 74.25833 | 32968 ft | 466 kts | 122° |
| 2026-04-21 16:23 | 18.40673 | 74.32086 | 32966 ft | 471 kts | 122° |
| 2026-04-21 16:23 | 18.37949 | 74.38332 | 32960 ft | 466 kts | 122° |
| 2026-04-21 16:23 | 18.36587 | 74.41439 | 33066 ft | 471 kts | 122° |
| 2026-04-21 16:24 | 18.35221 | 74.44556 | 33733 ft | 466 kts | 122° |
| 2026-04-21 16:24 | 18.33885 | 74.47623 | 34581 ft | 457 kts | 123° |
| 2026-04-21 16:24 | 18.32560 | 74.50648 | 34839 ft | 458 kts | 123° |
| 2026-04-21 16:24 | 18.31223 | 74.53697 | 34967 ft | 457 kts | 123° |
| 2026-04-21 16:25 | 18.29910 | 74.56692 | 34967 ft | 454 kts | 123° |
| 2026-04-21 16:25 | 18.27279 | 74.62690 | 34967 ft | 453 kts | 123° |
| 2026-04-21 16:26 | 18.24630 | 74.68728 | 34960 ft | 453 kts | 124° |
| 2026-04-21 16:26 | 18.22005 | 74.74744 | 34955 ft | 453 kts | 124° |
| 2026-04-21 16:27 | 18.19431 | 74.80709 | 34948 ft | 452 kts | 124° |
| 2026-04-21 16:27 | 18.16857 | 74.86676 | 34947 ft | 449 kts | 124° |
| 2026-04-21 16:28 | 18.14261 | 74.92654 | 34945 ft | 450 kts | 124° |
| 2026-04-21 16:28 | 18.11663 | 74.98636 | 34946 ft | 448 kts | 124° |
| 2026-04-21 16:29 | 18.09092 | 75.04555 | 34940 ft | 450 kts | 124° |
| 2026-04-21 16:29 | 18.06480 | 75.10538 | 34939 ft | 449 kts | 124° |
| 2026-04-21 16:30 | 18.03895 | 75.16472 | 34942 ft | 448 kts | 124° |
| 2026-04-21 16:30 | 18.01321 | 75.22439 | 34936 ft | 449 kts | 123° |
| 2026-04-21 16:31 | 17.98726 | 75.28438 | 34945 ft | 448 kts | 123° |
| 2026-04-21 16:31 | 17.96152 | 75.34365 | 34941 ft | 447 kts | 123° |
| 2026-04-21 16:32 | 17.93536 | 75.40367 | 34945 ft | 450 kts | 123° |
| 2026-04-21 16:32 | 17.90930 | 75.46324 | 34949 ft | 450 kts | 124° |
| 2026-04-21 16:33 | 17.88330 | 75.52248 | 34941 ft | 448 kts | 123° |
| 2026-04-21 16:33 | 17.85719 | 75.58192 | 34940 ft | 450 kts | 124° |
| 2026-04-21 16:34 | 17.83124 | 75.64100 | 34939 ft | 450 kts | 123° |
| 2026-04-21 16:34 | 17.80490 | 75.70094 | 34942 ft | 449 kts | 123° |
| 2026-04-21 16:35 | 17.77878 | 75.76038 | 34945 ft | 450 kts | 123° |
| 2026-04-21 16:35 | 17.75283 | 75.81945 | 34946 ft | 448 kts | 123° |
| 2026-04-21 16:36 | 17.72651 | 75.87908 | 34943 ft | 450 kts | 123° |
| 2026-04-21 16:36 | 17.70023 | 75.93855 | 34949 ft | 450 kts | 123° |
| 2026-04-21 16:37 | 17.67403 | 75.99796 | 34949 ft | 448 kts | 123° |
| 2026-04-21 16:37 | 17.64767 | 76.05734 | 34941 ft | 452 kts | 123° |
| 2026-04-21 16:38 | 17.62105 | 76.11689 | 34942 ft | 452 kts | 123° |
| 2026-04-21 16:38 | 17.59444 | 76.17631 | 34940 ft | 450 kts | 123° |
| 2026-04-21 16:39 | 17.56762 | 76.23599 | 34937 ft | 457 kts | 123° |
| 2026-04-21 16:39 | 17.54081 | 76.29582 | 34938 ft | 456 kts | 123° |
| 2026-04-21 16:40 | 17.51372 | 76.35628 | 34941 ft | 460 kts | 123° |
| 2026-04-21 16:40 | 17.48655 | 76.41685 | 34943 ft | 462 kts | 123° |
| 2026-04-21 16:41 | 17.45919 | 76.47788 | 34946 ft | 462 kts | 123° |
| 2026-04-21 16:41 | 17.43223 | 76.53801 | 34945 ft | 457 kts | 123° |
| 2026-04-21 16:42 | 17.40780 | 76.59232 | 34939 ft | 461 kts | 123° |
| 2026-04-21 16:42 | 17.38971 | 76.63245 | 34941 ft | 460 kts | 123° |
| 2026-04-21 16:43 | 17.36222 | 76.69335 | 34937 ft | 463 kts | 123° |
| 2026-04-21 16:43 | 17.33493 | 76.75397 | 34791 ft | 463 kts | 122° |
| 2026-04-21 16:43 | 17.32295 | 76.78537 | 34505 ft | 465 kts | 115° |
| 2026-04-21 16:44 | 17.31510 | 76.81833 | 34231 ft | 471 kts | 107° |
| 2026-04-21 16:44 | 17.31041 | 76.85251 | 33961 ft | 478 kts | 103° |
| 2026-04-21 16:44 | 17.30744 | 76.88710 | 33683 ft | 476 kts | 100° |
| 2026-04-21 16:44 | 17.30546 | 76.92120 | 33408 ft | 474 kts | 98° |
| 2026-04-21 16:45 | 17.30388 | 76.95594 | 33131 ft | 473 kts | 98° |
| 2026-04-21 16:45 | 17.30249 | 76.99002 | 32867 ft | 470 kts | 98° |
| 2026-04-21 16:45 | 17.30115 | 77.02369 | 32613 ft | 469 kts | 97° |
| 2026-04-21 16:45 | 17.29973 | 77.05820 | 32350 ft | 468 kts | 97° |
| 2026-04-21 16:46 | 17.29826 | 77.09174 | 32075 ft | 464 kts | 98° |
| 2026-04-21 16:46 | 17.29672 | 77.12525 | 31679 ft | 457 kts | 98° |
| 2026-04-21 16:46 | 17.29514 | 77.15829 | 31160 ft | 454 kts | 97° |
| 2026-04-21 16:46 | 17.29354 | 77.19106 | 30630 ft | 451 kts | 97° |
| 2026-04-21 16:47 | 17.29191 | 77.22362 | 30080 ft | 449 kts | 96° |
| 2026-04-21 16:47 | 17.29030 | 77.25579 | 29538 ft | 446 kts | 96° |
| 2026-04-21 16:47 | 17.28861 | 77.28829 | 28996 ft | 443 kts | 96° |
| 2026-04-21 16:47 | 17.28634 | 77.32019 | 28371 ft | 442 kts | 99° |
| 2026-04-21 16:48 | 17.28248 | 77.35181 | 27801 ft | 438 kts | 101° |
| 2026-04-21 16:48 | 17.27776 | 77.38303 | 27255 ft | 435 kts | 102° |
| 2026-04-21 16:48 | 17.27281 | 77.41398 | 26721 ft | 432 kts | 102° |
| 2026-04-21 16:48 | 17.26788 | 77.44478 | 26189 ft | 429 kts | 102° |
| 2026-04-21 16:49 | 17.26308 | 77.47550 | 25661 ft | 426 kts | 102° |
| 2026-04-21 16:49 | 17.25847 | 77.50580 | 25144 ft | 423 kts | 101° |
| 2026-04-21 16:49 | 17.25396 | 77.53610 | 24642 ft | 420 kts | 101° |
| 2026-04-21 16:49 | 17.24962 | 77.56583 | 24132 ft | 417 kts | 100° |
| 2026-04-21 16:50 | 17.24531 | 77.59597 | 23602 ft | 413 kts | 100° |
| 2026-04-21 16:50 | 17.24119 | 77.62508 | 23089 ft | 410 kts | 99° |
| 2026-04-21 16:50 | 17.23705 | 77.65452 | 22570 ft | 406 kts | 100° |
| 2026-04-21 16:50 | 17.23295 | 77.68375 | 22055 ft | 403 kts | 99° |
| 2026-04-21 16:51 | 17.22893 | 77.71234 | 21542 ft | 399 kts | 100° |
| 2026-04-21 16:51 | 17.22493 | 77.74093 | 21032 ft | 396 kts | 99° |
| 2026-04-21 16:51 | 17.22096 | 77.76917 | 20519 ft | 393 kts | 99° |
| 2026-04-21 16:51 | 17.21698 | 77.79728 | 20007 ft | 390 kts | 99° |
| 2026-04-21 16:52 | 17.21300 | 77.82482 | 19505 ft | 386 kts | 99° |
| 2026-04-21 16:52 | 17.20900 | 77.85277 | 18992 ft | 383 kts | 98° |
| 2026-04-21 16:52 | 17.20517 | 77.88012 | 18490 ft | 380 kts | 98° |
| 2026-04-21 16:52 | 17.20129 | 77.90720 | 17992 ft | 376 kts | 98° |
| 2026-04-21 16:53 | 17.19752 | 77.93375 | 17503 ft | 372 kts | 98° |
| 2026-04-21 16:53 | 17.19376 | 77.96059 | 17012 ft | 369 kts | 98° |
| 2026-04-21 16:53 | 17.19010 | 77.98677 | 16528 ft | 366 kts | 98° |
| 2026-04-21 16:53 | 17.18643 | 78.01289 | 16044 ft | 363 kts | 98° |
| 2026-04-21 16:54 | 17.18278 | 78.03883 | 15568 ft | 359 kts | 98° |
| 2026-04-21 16:54 | 17.17913 | 78.06433 | 15090 ft | 356 kts | 98° |
| 2026-04-21 16:54 | 17.17548 | 78.08981 | 14617 ft | 353 kts | 98° |
| 2026-04-21 16:54 | 17.17165 | 78.11505 | 14273 ft | 346 kts | 98° |
| 2026-04-21 16:55 | 17.16791 | 78.13955 | 14110 ft | 334 kts | 97° |
| 2026-04-21 16:55 | 17.16449 | 78.16321 | 13775 ft | 329 kts | 97° |
| 2026-04-21 16:55 | 17.16119 | 78.18674 | 13379 ft | 326 kts | 97° |
| 2026-04-21 16:55 | 17.15787 | 78.20978 | 12983 ft | 323 kts | 97° |
| 2026-04-21 16:56 | 17.15441 | 78.23288 | 12550 ft | 322 kts | 98° |
| 2026-04-21 16:56 | 17.15107 | 78.25608 | 12111 ft | 320 kts | 97° |
| 2026-04-21 16:56 | 17.14783 | 78.27909 | 11582 ft | 319 kts | 97° |
| 2026-04-21 16:56 | 17.14470 | 78.30175 | 11062 ft | 314 kts | 97° |
| 2026-04-21 16:57 | 17.14160 | 78.32385 | 10701 ft | 304 kts | 97° |
| 2026-04-21 16:57 | 17.13902 | 78.34538 | 10358 ft | 297 kts | 93° |
| 2026-04-21 16:57 | 17.13912 | 78.36672 | 9947 ft | 296 kts | 85° |
| 2026-04-21 16:57 | 17.14063 | 78.38828 | 9534 ft | 295 kts | 85° |
| 2026-04-21 16:58 | 17.14203 | 78.40955 | 9142 ft | 294 kts | 86° |
| 2026-04-21 16:58 | 17.14297 | 78.43085 | 8733 ft | 292 kts | 88° |
| 2026-04-21 16:58 | 17.14352 | 78.45170 | 8251 ft | 285 kts | 89° |
| 2026-04-21 16:58 | 17.14391 | 78.47206 | 7841 ft | 277 kts | 89° |
| 2026-04-21 16:59 | 17.14426 | 78.49194 | 7334 ft | 274 kts | 89° |
| 2026-04-21 16:59 | 17.14463 | 78.51176 | 6804 ft | 271 kts | 89° |
| 2026-04-21 16:59 | 17.14498 | 78.53127 | 6394 ft | 267 kts | 89° |
| 2026-04-21 16:59 | 17.14531 | 78.55052 | 6024 ft | 267 kts | 89° |
| 2026-04-21 17:00 | 17.14569 | 78.56957 | 5905 ft | 255 kts | 89° |
| 2026-04-21 17:00 | 17.14615 | 78.58772 | 5761 ft | 246 kts | 88° |
| 2026-04-21 17:00 | 17.14640 | 78.59940 | 5610 ft | 243 kts | 89° |
| 2026-04-21 17:00 | 17.14787 | 78.62277 | 5162 ft | 243 kts | 75° |
| 2026-04-21 17:01 | 17.15586 | 78.63819 | 4798 ft | 243 kts | 46° |
| 2026-04-21 17:01 | 17.16990 | 78.64748 | 4476 ft | 242 kts | 18° |
| 2026-04-21 17:01 | 17.18654 | 78.64841 | 4193 ft | 241 kts | 347° |
| 2026-04-21 17:01 | 17.20132 | 78.64059 | 3977 ft | 236 kts | 316° |
| 2026-04-21 17:02 | 17.21095 | 78.62728 | 3877 ft | 229 kts | 301° |
| 2026-04-21 17:02 | 17.21885 | 78.61272 | 3811 ft | 226 kts | 300° |
| 2026-04-21 17:02 | 17.22633 | 78.59834 | 3727 ft | 225 kts | 297° |
| 2026-04-21 17:02 | 17.23098 | 78.58313 | 3647 ft | 211 kts | 276° |
| 2026-04-21 17:03 | 17.23129 | 78.56836 | 3551 ft | 199 kts | 266° |
| 2026-04-21 17:03 | 17.23047 | 78.55396 | 3558 ft | 196 kts | 268° |
| 2026-04-21 17:03 | 17.23026 | 78.54053 | 3553 ft | 180 kts | 270° |
| 2026-04-21 17:03 | 17.23022 | 78.52780 | 3443 ft | 176 kts | 270° |
| 2026-04-21 17:04 | 17.23003 | 78.51523 | 3140 ft | 167 kts | 269° |
| 2026-04-21 17:04 | 17.22983 | 78.50333 | 2958 ft | 162 kts | 268° |
| 2026-04-21 17:04 | 17.22966 | 78.49164 | 2755 ft | 159 kts | 269° |
| 2026-04-21 17:04 | 17.22967 | 78.48024 | 2555 ft | 158 kts | 269° |
| 2026-04-21 17:05 | 17.22939 | 78.46881 | 2360 ft | 156 kts | 267° |
| 2026-04-21 17:05 | 17.22921 | 78.45757 | 2159 ft | 155 kts | 268° |
| 2026-04-21 17:05 | 17.22907 | 78.44642 | 2040 ft | 147 kts | 267° |
| 2026-04-21 17:05 | 17.22892 | 78.43810 | 2028 ft | 76 kts | 269° |
| 2026-04-21 17:06 | 17.22888 | 78.43329 | 2011 ft | 64 kts | 269° |
| 2026-04-21 17:06 | 17.22953 | 78.42967 | 2001 ft | 32 kts | 301° |
| 2026-04-21 17:06 | 17.23022 | 78.42849 | 1996 ft | 4 kts | 305° |
| 2026-04-21 17:06 | 17.23047 | 78.42820 | 1995 ft | 6 kts | 316° |
| 2026-04-21 17:07 | 17.23080 | 78.42782 | 1993 ft | 8 kts | 301° |
| 2026-04-21 17:07 | 17.23137 | 78.42736 | 1991 ft | 13 kts | 352° |
| 2026-04-21 17:07 | 17.23234 | 78.42731 | 1993 ft | 12 kts | 358° |
| 2026-04-21 17:07 | 17.23311 | 78.42738 | 1994 ft | 10 kts | 30° |
| 2026-04-21 17:08 | 17.23329 | 78.42794 | 1996 ft | 6 kts | 90° |
| 2026-04-21 17:08 | 17.23329 | 78.42847 | 1998 ft | 9 kts | 89° |
| 2026-04-21 17:08 | 17.23331 | 78.42928 | 2001 ft | 12 kts | 89° |
| 2026-04-21 17:08 | 17.23332 | 78.43005 | 2004 ft | 8 kts | 89° |
| 2026-04-21 17:09 | 17.23353 | 78.43082 | 2006 ft | 4 kts | 4° |
| 2026-04-21 17:09 | 17.23393 | 78.43080 | 2005 ft | 7 kts | 357° |
| 2026-04-21 17:09 | 17.23429 | 78.43079 | 2005 ft | 3 kts | 358° |
| 2026-04-21 17:10 | 17.23439 | 78.43079 | 2004 ft | 0 kts | 359° |